This is the latest recevied weather packets stored in our database for station/object LROP. If no packets are shown the sender has not sent any weather packets the latest 10 day(s).
| Time | Temp. | Humidity | Pressure | Rain* | Wind** | Luminosity | Snow |
|---|---|---|---|---|---|---|---|
| 1777233782 | 11.11° C | 38% | 1019 hPa | - | - | - | - |
| 1777232892 | 12.22° C | 35% | 1018 hPa | - | - | - | - |
| 1777231982 | 12.22° C | 35% | 1018 hPa | - | - | - | - |
| 1777231082 | 12.22° C | 35% | 1017 hPa | - | - | - | - |
| 1777230182 | 12.22° C | 35% | 1017 hPa | - | - | - | - |
| 1777229282 | 12.78° C | 36% | 1016 hPa | - | - | - | - |
| 1777228382 | 12.78° C | 36% | 1016 hPa | - | - | - | - |
| 1777227499 | 12.78° C | 38% | 1015 hPa | - | - | - | - |
| 1777226582 | 12.78° C | 38% | 1015 hPa | - | - | - | - |
| 1777225682 | 13.89° C | 44% | 1014 hPa | - | - | - | - |
| 1777224782 | 13.89° C | 44% | 1014 hPa | - | - | - | - |
| 1777223883 | 15° C | 45% | 1013 hPa | - | - | - | - |
| 1777222982 | 15° C | 45% | 1013 hPa | - | - | - | - |
| 1777222082 | 16.11° C | 45% | 1012 hPa | - | - | - | - |
| 1777221182 | 16.11° C | 45% | 1012 hPa | - | - | - | - |
| 1777220282 | 17.22° C | 45% | 1011 hPa | - | - | - | - |
| 1777219382 | 17.22° C | 45% | 1011 hPa | - | - | - | - |
| 1777217583 | 26.11° C | 18% | 1008 hPa | - | - | - | - |
| 1777216682 | 27.22° C | 18% | 1008 hPa | - | - | - | - |
| 1777215782 | 27.22° C | 18% | 1008 hPa | - | - | - | - |
| 1777214882 | 27.22° C | 21% | 1008 hPa | - | - | - | - |
| 1777213982 | 27.22° C | 21% | 1008 hPa | - | - | - | - |
| 1777213082 | 27.22° C | 21% | 1008 hPa | - | - | - | - |
| 1777212182 | 27.22° C | 21% | 1008 hPa | - | - | - | - |
| 1777211282 | 26.11° C | 23% | 1008 hPa | - | - | - | - |
* Rain since midnight (hover to see other rain measurements)
** Current wind speed in m/s (hover to see current wind gust speed)